Un Akdeniz — TCTD2 — position and weather

sailwx.info

Track history (hours):
 
Tides and Currents Weather Stations Pressure Air Temp Water Temp Dewpoint Dewpoint Depression Visibility Wind Speed Wind Dir Waves Ship Positions

Un Akdeniz

Last reported at 2016-Aug-24 17:34 UTC. Time now 2016-Aug-24 17:57 UTC.
Position N 37°54' E 024°36'.

Length 192 m; draft 6.7 m.

Type: Ship (hazmat cat A). MMSI: 271002572.

Date/timePositionNaut miles runAvg speedWind from/ knotsBaromVisibWave heightAir tempDewpointWater temp
2016-Aug-24 17:34N 37°54' E 024°36'4019.3
2016-Aug-24 15:30N 37°20' E 024°10'67617.3
2016-Aug-23 00:30N 45°01' E 013°13'1819.6
2016-Aug-22 23:33N 45°18' E 013°03'2018.7
2016-Aug-22 22:30N 45°33' E 013°21'18 2.5
2016-Aug-22 15:16N 45°39' E 013°45'27 9.2
2016-Aug-22 12:22N 45°23' E 013°14'50619.6
2016-Aug-21 10:33N 38°35' E 019°57'4619.8
2016-Aug-21 08:15N 37°56' E 020°27'16115.9
2016-Aug-20 22:06N 36°51' E 023°33'1120.7
2016-Aug-20 21:33N 37°01' E 023°41'2420.0
2016-Aug-20 20:20N 37°22' E 023°57'1619.8
2016-Aug-20 19:32N 37°35' E 024°08'6120.0
2016-Aug-20 16:27N 38°25' E 024°53'23211.6
2016-Aug-19 20:28N 40°52' E 028°46'1414.9
2016-Aug-19 19:30N 40°48' E 029°04'1010.5
2016-Aug-19 18:32N 40°51' E 029°16'0 0.0
2016-Aug-19 17:32N 40°51' E 029°16'0 0.0
2016-Aug-19 16:31N 40°51' E 029°16'0 0.0
2016-Aug-19 15:33N 40°51' E 029°16'0 0.0
2016-Aug-19 14:32N 40°51' E 029°16'0 0.0
2016-Aug-19 13:33N 40°51' E 029°16'0 0.0
2016-Aug-19 12:33N 40°51' E 029°16'0 0.0
2016-Aug-19 11:33N 40°51' E 029°16'0 0.0
2016-Aug-19 10:33N 40°51' E 029°16'0 0.0
2016-Aug-19 09:33N 40°51' E 029°16'0 0.0
2016-Aug-19 08:33N 40°51' E 029°16'0 0.0
2016-Aug-19 07:33N 40°51' E 029°16'0 0.0
2016-Aug-19 06:33N 40°51' E 029°16'0 0.0
2016-Aug-19 05:26N 40°51' E 029°16'0 0.0
2016-Aug-19 04:32N 40°51' E 029°16'0 0.0
2016-Aug-19 03:33N 40°51' E 029°16'0 0.0
2016-Aug-19 02:33N 40°51' E 029°16'0 0.0
2016-Aug-19 01:33N 40°51' E 029°16'0 0.0
2016-Aug-19 00:33N 40°51' E 029°16'0 0.0
2016-Aug-18 23:33N 40°51' E 029°16'0 0.0
2016-Aug-18 22:33N 40°51' E 029°16'0 0.0
2016-Aug-18 21:33N 40°51' E 029°16'0 0.0
2016-Aug-18 20:33N 40°51' E 029°16'0 0.0
2016-Aug-18 19:33N 40°51' E 029°16'0 0.0
2016-Aug-18 18:33N 40°51' E 029°16'0 0.0
2016-Aug-18 17:33N 40°51' E 029°16'0 0.0
2016-Aug-18 16:33N 40°51' E 029°16'0 0.0
2016-Aug-18 15:33N 40°51' E 029°16'0 0.0
2016-Aug-18 14:33N 40°51' E 029°16'0 0.0
2016-Aug-18 13:33N 40°51' E 029°16'0 0.0
2016-Aug-18 12:33N 40°51' E 029°16'0 0.0
2016-Aug-18 11:33N 40°51' E 029°16'0 0.0
2016-Aug-18 10:33N 40°51' E 029°16'0 0.0
2016-Aug-18 09:30N 40°51' E 029°16'0 0.0
2016-Aug-18 08:33N 40°51' E 029°16'0 0.0
2016-Aug-18 07:34N 40°51' E 029°16'0 0.0
2016-Aug-18 06:33N 40°51' E 029°16'10 9.7
2016-Aug-18 05:32N 40°48' E 029°04'2020.2
2016-Aug-18 04:33N 40°47' E 028°38'6420.0
2016-Aug-18 01:20N 40°36' E 027°14'1620.0
2016-Aug-18 00:31N 40°29' E 026°55'1716.4
2016-Aug-17 23:31N 40°19' E 026°37'1314.0
2016-Aug-17 22:33N 40°11' E 026°23'1111.1
2016-Aug-17 21:33N 40°02' E 026°15'2017.4
2016-Aug-17 20:24N 39°51' E 025°53'8219.9
2016-Aug-17 16:15N 38°38' E 025°04'3419.9
2016-Aug-17 14:33N 38°07' E 024°45'1919.2
2016-Aug-17 13:33N 37°50' E 024°34'3918.9
2016-Aug-17 11:31N 37°17' E 024°08'2319.9
2016-Aug-17 10:22N 36°59' E 023°51'1619.4
2016-Aug-17 09:33N 36°47' E 023°38'2119.8
2016-Aug-17 08:31N 36°31' E 023°21'27818.5
2016-Aug-16 17:29N 39°41' E 019°02'6220.9
2016-Aug-16 14:31N 40°33' E 018°18'16620.8
2016-Aug-16 06:33N 42°33' E 015°46'4320.2
2016-Aug-16 04:26N 43°07' E 015°09'12020.5
2016-Aug-15 22:33N 44°43' E 013°29'2120.8
2016-Aug-15 21:33N 45°01' E 013°13'2119.9
2016-Aug-15 20:30N 45°20' E 013°03'1919.8
2016-Aug-15 19:31N 45°34' E 013°23'16 5.1
2016-Aug-15 16:17N 45°39' E 013°45'0 0.0
2016-Aug-15 15:26N 45°39' E 013°45'0 0.0
2016-Aug-15 14:29N 45°39' E 013°45'0 0.0
2016-Aug-15 13:31N 45°39' E 013°45'8 8.3
2016-Aug-15 12:33N 45°36' E 013°34'1919.2
2016-Aug-15 11:33N 45°23' E 013°14'2019.8
2016-Aug-15 10:33N 45°04' E 013°21'2019.9
2016-Aug-15 09:33N 44°46' E 013°34'2019.6
2016-Aug-15 08:33N 44°30' E 013°49'2020.2
2016-Aug-15 07:33N 44°14' E 014°06'2220.0
2016-Aug-15 06:27N 43°57' E 014°27'3820.2
2016-Aug-15 04:33N 43°29' E 015°02'2020.2
2016-Aug-15 03:33N 43°15' E 015°21'  
Track history (hours):
 
Tides and Currents Weather Stations Pressure Air Temp Water Temp Dewpoint Dewpoint Depression Visibility Wind Speed Wind Dir Waves Ship Positions

Un Akdeniz

Last reported at 2016-Aug-24 17:34 UTC. Time now 2016-Aug-24 17:57 UTC.
Position N 37°54' E 024°36'.

Length 192 m; draft 6.7 m.

Type: Ship (hazmat cat A). MMSI: 271002572.

Date/timePositionNaut miles runAvg speedWind from/ knotsBaromVisibWave heightAir tempDewpointWater temp
2016-Aug-24 17:34N 37°54' E 024°36'4019.3
2016-Aug-24 15:30N 37°20' E 024°10'67617.3
2016-Aug-23 00:30N 45°01' E 013°13'1819.6
2016-Aug-22 23:33N 45°18' E 013°03'2018.7
2016-Aug-22 22:30N 45°33' E 013°21'18 2.5
2016-Aug-22 15:16N 45°39' E 013°45'27 9.2
2016-Aug-22 12:22N 45°23' E 013°14'50619.6
2016-Aug-21 10:33N 38°35' E 019°57'4619.8
2016-Aug-21 08:15N 37°56' E 020°27'16115.9
2016-Aug-20 22:06N 36°51' E 023°33'1120.7
2016-Aug-20 21:33N 37°01' E 023°41'2420.0
2016-Aug-20 20:20N 37°22' E 023°57'1619.8
2016-Aug-20 19:32N 37°35' E 024°08'6120.0
2016-Aug-20 16:27N 38°25' E 024°53'23211.6
2016-Aug-19 20:28N 40°52' E 028°46'1414.9
2016-Aug-19 19:30N 40°48' E 029°04'1010.5
2016-Aug-19 18:32N 40°51' E 029°16'0 0.0
2016-Aug-19 17:32N 40°51' E 029°16'0 0.0
2016-Aug-19 16:31N 40°51' E 029°16'0 0.0
2016-Aug-19 15:33N 40°51' E 029°16'0 0.0
2016-Aug-19 14:32N 40°51' E 029°16'0 0.0
2016-Aug-19 13:33N 40°51' E 029°16'0 0.0
2016-Aug-19 12:33N 40°51' E 029°16'0 0.0
2016-Aug-19 11:33N 40°51' E 029°16'0 0.0
2016-Aug-19 10:33N 40°51' E 029°16'0 0.0
2016-Aug-19 09:33N 40°51' E 029°16'0 0.0
2016-Aug-19 08:33N 40°51' E 029°16'0 0.0
2016-Aug-19 07:33N 40°51' E 029°16'0 0.0
2016-Aug-19 06:33N 40°51' E 029°16'0 0.0
2016-Aug-19 05:26N 40°51' E 029°16'0 0.0
2016-Aug-19 04:32N 40°51' E 029°16'0 0.0
2016-Aug-19 03:33N 40°51' E 029°16'0 0.0
2016-Aug-19 02:33N 40°51' E 029°16'0 0.0
2016-Aug-19 01:33N 40°51' E 029°16'0 0.0
2016-Aug-19 00:33N 40°51' E 029°16'0 0.0
2016-Aug-18 23:33N 40°51' E 029°16'0 0.0
2016-Aug-18 22:33N 40°51' E 029°16'0 0.0
2016-Aug-18 21:33N 40°51' E 029°16'0 0.0
2016-Aug-18 20:33N 40°51' E 029°16'0 0.0
2016-Aug-18 19:33N 40°51' E 029°16'0 0.0
2016-Aug-18 18:33N 40°51' E 029°16'0 0.0
2016-Aug-18 17:33N 40°51' E 029°16'0 0.0
2016-Aug-18 16:33N 40°51' E 029°16'0 0.0
2016-Aug-18 15:33N 40°51' E 029°16'0 0.0
2016-Aug-18 14:33N 40°51' E 029°16'0 0.0
2016-Aug-18 13:33N 40°51' E 029°16'0 0.0
2016-Aug-18 12:33N 40°51' E 029°16'0 0.0
2016-Aug-18 11:33N 40°51' E 029°16'0 0.0
2016-Aug-18 10:33N 40°51' E 029°16'0 0.0
2016-Aug-18 09:30N 40°51' E 029°16'0 0.0
2016-Aug-18 08:33N 40°51' E 029°16'0 0.0
2016-Aug-18 07:34N 40°51' E 029°16'0 0.0
2016-Aug-18 06:33N 40°51' E 029°16'10 9.7
2016-Aug-18 05:32N 40°48' E 029°04'2020.2
2016-Aug-18 04:33N 40°47' E 028°38'6420.0
2016-Aug-18 01:20N 40°36' E 027°14'1620.0
2016-Aug-18 00:31N 40°29' E 026°55'1716.4
2016-Aug-17 23:31N 40°19' E 026°37'1314.0
2016-Aug-17 22:33N 40°11' E 026°23'1111.1
2016-Aug-17 21:33N 40°02' E 026°15'2017.4
2016-Aug-17 20:24N 39°51' E 025°53'8219.9
2016-Aug-17 16:15N 38°38' E 025°04'3419.9
2016-Aug-17 14:33N 38°07' E 024°45'1919.2
2016-Aug-17 13:33N 37°50' E 024°34'3918.9
2016-Aug-17 11:31N 37°17' E 024°08'2319.9
2016-Aug-17 10:22N 36°59' E 023°51'1619.4
2016-Aug-17 09:33N 36°47' E 023°38'2119.8
2016-Aug-17 08:31N 36°31' E 023°21'27818.5
2016-Aug-16 17:29N 39°41' E 019°02'6220.9
2016-Aug-16 14:31N 40°33' E 018°18'16620.8
2016-Aug-16 06:33N 42°33' E 015°46'4320.2
2016-Aug-16 04:26N 43°07' E 015°09'12020.5
2016-Aug-15 22:33N 44°43' E 013°29'2120.8
2016-Aug-15 21:33N 45°01' E 013°13'2119.9
2016-Aug-15 20:30N 45°20' E 013°03'1919.8
2016-Aug-15 19:31N 45°34' E 013°23'16 5.1
2016-Aug-15 16:17N 45°39' E 013°45'0 0.0
2016-Aug-15 15:26N 45°39' E 013°45'0 0.0
2016-Aug-15 14:29N 45°39' E 013°45'0 0.0
2016-Aug-15 13:31N 45°39' E 013°45'8 8.3
2016-Aug-15 12:33N 45°36' E 013°34'1919.2
2016-Aug-15 11:33N 45°23' E 013°14'2019.8
2016-Aug-15 10:33N 45°04' E 013°21'2019.9
2016-Aug-15 09:33N 44°46' E 013°34'2019.6
2016-Aug-15 08:33N 44°30' E 013°49'2020.2
2016-Aug-15 07:33N 44°14' E 014°06'2220.0
2016-Aug-15 06:27N 43°57' E 014°27'3820.2
2016-Aug-15 04:33N 43°29' E 015°02'2020.2
2016-Aug-15 03:33N 43°15' E 015°21'  

Dump ship's entire track history